Alfred, North Dakota
Current Conditions -  °F | °C
As of 4:56 AM on Wednesday 22 Oct 2014 (Local Time) from KJMS Reporting Station
Clear Clear  
Wind Chill: 58°   Ceiling: Unl
Heat Index: 58°   Visibility: 10mi
Dew Point: 41°   Wind: 16mph
Humidity: 53%   Direction: 170°S
Pressure: 29.76"   Gusts: 24mph
Location:  46.4882°N, 98.8135°W
Report Text: KJMS 220956Z AUTO 17014G21KT 10SM CLR 14/05 A2976 RMK AO2 SLP073 T01440050
Loading
Personal Weather Stations






























Interactive Weather Map
Tropical Storm Tracking
New forecast layout! Learn more

10-Day Weather Forecast

Advertisements
Track Severe Weather on mobile